• Join FlightAware (Why Join?)
  • Login
  • US Flag 
12:24PM EDT


 

Airport Tracker/Info


-or-


 

Live Flight TrackerFlight Track Log ✈ SKW5460 ✈ 05-May-2013 ✈ KRDD - KSFO

Flight Track Log - Related Links

Times and Time Zones

All times are in EDT time to prevent confusion due to time zone crossing. See the SKW5460 flight status page for this flight to view local times or setup timezone preferences in your user account.

Time Position Orientation Groundspeed Altitude Reporting Facility
EDT Latitude Longitude Course Direction KTS MPH feet Rate Location/Type
09:19AM 40.5297 -122.2947 189° South 150 173 1,500  Level Oakland Center
09:20AM 40.5239 -122.2589 102° East 171 197 3,100 1,440 Climbing Oakland Center
09:21AM 40.3591 -122.2978 187° South  Level Estimated
09:21AM 40.4794 -122.2564 178° South 172 198 4,500  Level Oakland Center
09:22AM 40.2842 -122.3000 192° South  Level Estimated
09:22AM 40.4278 -122.2678 190° South 184 212 6,100  Level Oakland Center
09:23AM 40.2255 -122.3388 207° Southwest  Level FlightAware Approximate
09:23AM 40.3781 -122.2789 190° South 184 212 7,600  Level Oakland Center
09:24AM 40.1612 -122.3711 189° South  Level FlightAware Approximate
09:24AM 40.3250 -122.2958 194° South 192 221 9,300  Level Oakland Center
09:25AM 40.2717 -122.3067 189° South 195 224 11,000 1,500 Climbing Oakland Center
09:26AM 40.2194 -122.3231 193° South 195 224 12,400 1,560 Climbing Oakland Center
09:27AM 40.1553 -122.3428 193° South 203 234 14,200 1,560 Climbing Oakland Center
09:28AM 40.1019 -122.3533 189° South 197 227 15,600 1,260 Climbing Oakland Center
09:29AM 40.0475 -122.3675 191° South 199 229 16,800 1,380 Climbing Oakland Center
09:30AM 39.9906 -122.3825 191° South 206 237 18,400 1,440 Climbing Oakland Center
09:31AM 39.9336 -122.3978 192° South 207 238 19,700 1,140 Climbing Oakland Center
09:32AM 39.8783 -122.4128 192° South 204 235 20,700 600 Climbing Oakland Center
09:33AM 39.8189 -122.4294 192° South 214 246 21,000 120 Climbing Oakland Center
09:34AM 39.7517 -122.4464 191° South 238 274 21,000 420 Level Oakland Center
09:35AM 39.6864 -122.4628 191° South 238 274 21,900 780 Climbing Oakland Center
09:36AM 39.6264 -122.4786 191° South 224 258 22,600 540 Climbing Oakland Center
09:37AM 39.5631 -122.4950 191° South 230 265 23,000 180 Climbing Oakland Center
09:38AM 39.4967 -122.5108 190° South 242 278 23,000  Level Oakland Center
09:39AM 39.4267 -122.5275 190° South 253 291 23,000  Level Oakland Center
09:40AM 39.3586 -122.5456 192° South 254 292 23,000  Level Oakland Center
09:41AM 39.2861 -122.5653 192° South 264 304 23,000  Level Oakland Center
09:42AM 39.2081 -122.5847 191° South 256 295 23,000  Level Oakland Center
09:43AM 39.1464 -122.6022 192° South 256 295 23,000  Level Oakland Center
09:44AM 39.0764 -122.6197 191° South 256 295 23,000  Level Oakland Center
09:45AM 39.0058 -122.6372 191° South 259 298 23,000  Level Oakland Center
09:46AM 38.9283 -122.6578 192° South 256 295 23,000  Level Oakland Center
09:47AM 38.8586 -122.6750 191° South 255 293 23,000 -180 Level Oakland Center
09:48AM 38.7878 -122.6944 192° South 257 296 22,700 -1,020 Descending Oakland Center
09:49AM 38.7122 -122.7142 192° South 274 315 21,000 -1,740 Descending Oakland Center
09:50AM 38.6344 -122.7344 192° South 283 326 19,200 -1,920 Descending Oakland Center
09:51AM 38.5583 -122.7519 190° South 279 321 17,200 -1,800 Descending Oakland Center
09:52AM 38.4844 -122.7708 191° South 275 316 15,600 -1,740 Descending Oakland Center
09:53AM 38.4119 -122.7892 191° South 268 308 13,800 -1,800 Descending Oakland Center
09:54AM 38.3411 -122.8078 192° South 261 300 12,000 -1,800 Descending Oakland Center
09:55AM 38.2711 -122.8244 191° South 258 297 10,200 -1,680 Descending Oakland Center
09:56AM 38.2053 -122.8389 190° South 245 282 8,700 -1,500 Descending Oakland Center
09:57AM 38.1400 -122.8533 190° South 242 278 7,200 -900 Descending Oakland Center
09:58AM 38.0661 -122.8692 190° South 230 265 6,900 -120 Descending Oakland Center
09:59AM 38.0058 -122.8431 161° South 230 265 7,000  Climbing Oakland Center
10:00AM 37.9475 -122.8139 158° South 229 264 6,900 -60 Descending Oakland Center
10:01AM 37.8967 -122.7719 147° Southeast 228 262 6,900  Level Oakland Center
10:02AM 37.8558 -122.7119 131° Southeast 228 262 6,900 -180 Level Oakland Center
10:03AM 37.8147 -122.6517 131° Southeast 230 265 6,600 -600 Descending Oakland Center
10:04AM 37.7833 -122.6000 128° Southeast 227 261 6,000 -420 Descending Northern Cal TRACON
10:05AM 37.7667 -122.5500 113° Southeast 229 264 6,000  Level Northern Cal TRACON
10:06AM 37.7500 -122.4667 104° East 236 272 6,000  Level Northern Cal TRACON
10:07AM 37.7833 -122.4167 50° Northeast 258 297 6,000  Level Northern Cal TRACON
10:08AM 37.8500 -122.3833 22° Northeast 252 290 6,000  Level Northern Cal TRACON
10:08AM 37.8611 -122.3225 77° East 247 284 6,000 -600 Level Oakland Center
10:09AM 37.8358 -122.2517 114° Southeast 227 261 5,000 -1,200 Descending Oakland Center
10:10AM 37.7842 -122.2592 187° South 195 224 3,600 -1,320 Descending Oakland Center
10:11AM 37.7403 -122.2908 210° Southwest 184 212 2,400 -780 Descending Oakland Center
10:12AM 37.7014 -122.3167 208° Southwest 170 196 2,100 -600 Descending Oakland Center
10:13AM 37.6672 -122.3386 207° Southwest 154 177 1,200 -840 Descending Oakland Center
10:14AM 37.6372 -122.3581 207° Southwest 137 158 500 -480 Descending Oakland Center
10:15AM 37.6092 -122.3767 208° Southwest 134 154 300 -240 Descending Oakland Center